Time;durP1;ratioP1;P1;durP2;ratioP2;P2;SDS_P1;SDS_P2;PMS_P1;PMS_P2;Temp;Humidity;BMP_temperature;BMP_pressure;BME280_temperature;BME280_humidity;BME280_pressure;Samples;Min_cycle;Max_cycle;Signal;HPM_P1;HPM_P2
2022/04/12 00:01:33;;;;;;;;;;;4.40;88.80;;;;;;5036447;28;22207;-70
2022/04/12 00:04:00;;;;;;;;;;;4.40;88.50;;;;;;5029840;28;19929;-70
2022/04/12 00:06:28;;;;;;;;;;;4.40;88.10;;;;;;5032534;28;20411;-70
2022/04/12 00:08:55;;;;;;;;;;;4.40;88.00;;;;;;5036974;28;19932;-70
2022/04/12 00:11:24;;;;;;;;;;;4.40;87.80;;;;;;5035428;28;19971;-70
2022/04/12 00:13:51;;;;;;;;;;;4.40;88.10;;;;;;5032439;28;19986;-71
2022/04/12 00:16:18;;;;;;;;;;;4.30;88.50;;;;;;5033315;28;20338;-70
2022/04/12 00:19:03;;;;;;;;;;;4.40;88.50;;;;;;5035211;28;19929;-70
2022/04/12 00:21:34;;;;;;;;;;;4.30;89.10;;;;;;5036754;28;20262;-70
2022/04/12 00:24:04;;;;;;;;;;;4.30;88.60;;;;;;5037063;28;19965;-70
2022/04/12 00:26:32;;;;;;;;;;;4.30;89.70;;;;;;5038147;28;19925;-70
2022/04/12 00:28:59;;;;;;;;;;;4.30;89.00;;;;;;5036461;28;19933;-70
2022/04/12 00:31:26;;;;;;;;;;;4.30;89.00;;;;;;5038977;28;20327;-70
2022/04/12 00:33:53;;;;;;;;;;;4.30;89.40;;;;;;5034584;28;20338;-70
2022/04/12 00:36:20;;;;;;;;;;;4.30;88.80;;;;;;5036996;28;19929;-70
2022/04/12 00:38:47;;;;;;;;;;;4.30;88.70;;;;;;5037835;28;19929;-70
2022/04/12 00:41:15;;;;;;;;;;;4.30;89.00;;;;;;5035998;28;19933;-70
2022/04/12 00:43:42;;;;;;;;;;;4.20;89.10;;;;;;5038062;28;19933;-72
2022/04/12 00:46:10;;;;;;;;;;;4.20;89.90;;;;;;5036931;28;19978;-70
2022/04/12 00:48:37;;;;;;;;;;;4.20;89.80;;;;;;5036830;28;19968;-70
2022/04/12 00:51:04;;;;;;;;;;;4.20;90.20;;;;;;5054782;28;19937;-70
2022/04/12 00:53:32;;;;;;;;;;;4.20;90.00;;;;;;5036921;28;19928;-70
2022/04/12 00:55:59;;;;;;;;;;;4.20;89.70;;;;;;5038936;28;19929;-70
2022/04/12 00:58:27;;;;;;;;;;;4.20;89.80;;;;;;5035340;28;19939;-70
2022/04/12 01:00:54;;;;;;;;;;;4.20;90.20;;;;;;5036034;28;19933;-70
2022/04/12 01:03:21;;;;;;;;;;;4.20;90.50;;;;;;5035562;28;19929;-70
2022/04/12 01:05:48;;;;;;;;;;;4.20;90.70;;;;;;5036914;28;20368;-70
2022/04/12 01:08:16;;;;;;;;;;;4.20;90.90;;;;;;5037859;28;20397;-70
2022/04/12 01:10:45;;;;;;;;;;;4.20;91.50;;;;;;5037596;28;19932;-70
2022/04/12 01:13:12;;;;;;;;;;;4.30;91.20;;;;;;5052029;28;20815;-70
2022/04/12 01:15:42;;;;;;;;;;;4.30;91.20;;;;;;5036351;28;19929;-71
2022/04/12 01:18:10;;;;;;;;;;;4.30;91.20;;;;;;5036880;28;20491;-70
2022/04/12 01:20:37;;;;;;;;;;;4.30;90.40;;;;;;5038653;28;22183;-71
2022/04/12 01:23:04;;;;;;;;;;;4.30;90.10;;;;;;5040417;28;19929;-70
2022/04/12 01:25:31;;;;;;;;;;;4.40;90.00;;;;;;5035408;28;19928;-70
2022/04/12 01:27:58;;;;;;;;;;;4.40;90.10;;;;;;5034347;28;20410;-70
2022/04/12 01:30:25;;;;;;;;;;;4.30;90.50;;;;;;5039277;28;19929;-70
2022/04/12 01:32:52;;;;;;;;;;;4.30;90.70;;;;;;5037637;28;19940;-70
2022/04/12 01:35:19;;;;;;;;;;;4.30;91.50;;;;;;5034686;28;19929;-70
2022/04/12 01:37:46;;;;;;;;;;;4.20;91.10;;;;;;5034319;28;19941;-70
2022/04/12 01:40:13;;;;;;;;;;;4.20;90.70;;;;;;5037245;28;20429;-70
2022/04/12 01:42:40;;;;;;;;;;;4.20;91.00;;;;;;5035260;28;19944;-70
2022/04/12 01:45:08;;;;;;;;;;;4.20;91.00;;;;;;5036521;28;20007;-70
2022/04/12 01:47:35;;;;;;;;;;;4.10;90.70;;;;;;5036337;28;19971;-70
2022/04/12 01:50:03;;;;;;;;;;;4.10;90.90;;;;;;5033822;28;19932;-70
2022/04/12 01:52:30;;;;;;;;;;;4.00;91.10;;;;;;5041519;28;19924;-70
2022/04/12 01:54:57;;;;;;;;;;;4.00;91.50;;;;;;5035592;28;19932;-70
2022/04/12 01:57:24;;;;;;;;;;;4.00;91.90;;;;;;5033244;28;19929;-70
2022/04/12 01:59:50;;;;;;;;;;;3.90;91.70;;;;;;5037752;28;19933;-70
2022/04/12 02:02:17;;;;;;;;;;;3.90;92.30;;;;;;5035122;28;19935;-70
2022/04/12 02:04:44;;;;;;;;;;;3.90;92.10;;;;;;5037309;28;19931;-70
2022/04/12 02:07:12;;;;;;;;;;;3.80;92.70;;;;;;5052896;28;19964;-70
2022/04/12 02:09:39;;;;;;;;;;;3.80;92.40;;;;;;5032423;28;19929;-69
2022/04/12 02:12:06;;;;;;;;;;;3.80;92.10;;;;;;5035874;28;19936;-70
2022/04/12 02:14:32;;;;;;;;;;;3.80;92.40;;;;;;5035856;28;19929;-70
2022/04/12 02:16:59;;;;;;;;;;;3.70;92.80;;;;;;5037294;28;20003;-70
2022/04/12 02:19:26;;;;;;;;;;;3.80;92.60;;;;;;5033364;28;19932;-70
2022/04/12 02:21:53;;;;;;;;;;;3.70;92.80;;;;;;5031007;28;19940;-70
2022/04/12 02:24:20;;;;;;;;;;;3.70;93.00;;;;;;5034551;28;19998;-70
2022/04/12 02:26:47;;;;;;;;;;;3.70;92.90;;;;;;5036333;28;19933;-70
2022/04/12 02:29:14;;;;;;;;;;;3.60;92.80;;;;;;5047518;28;20660;-70
2022/04/12 02:31:41;;;;;;;;;;;3.60;93.70;;;;;;5036573;28;19933;-70
2022/04/12 02:34:08;;;;;;;;;;;3.60;93.40;;;;;;5038453;28;19943;-70
2022/04/12 02:36:36;;;;;;;;;;;3.60;93.10;;;;;;5035746;28;19933;-70
2022/04/12 02:39:02;;;;;;;;;;;3.50;92.70;;;;;;5034420;28;19929;-70
2022/04/12 02:41:30;;;;;;;;;;;3.50;93.00;;;;;;5050983;28;19929;-70
2022/04/12 02:43:56;;;;;;;;;;;3.50;93.50;;;;;;5036639;28;19936;-70
2022/04/12 02:46:23;;;;;;;;;;;3.50;93.10;;;;;;5035580;28;19932;-70
2022/04/12 02:48:50;;;;;;;;;;;3.50;93.90;;;;;;5049200;28;20353;-70
2022/04/12 02:51:18;;;;;;;;;;;3.50;93.50;;;;;;5033819;28;19960;-70
2022/04/12 02:53:45;;;;;;;;;;;3.50;92.70;;;;;;5036197;28;19933;-70
2022/04/12 02:56:12;;;;;;;;;;;3.50;92.60;;;;;;5035666;28;19964;-69
2022/04/12 02:58:39;;;;;;;;;;;3.50;92.20;;;;;;5031875;28;19929;-70
2022/04/12 03:01:06;;;;;;;;;;;3.50;92.50;;;;;;5035089;28;19943;-70
2022/04/12 03:03:34;;;;;;;;;;;3.50;92.40;;;;;;5035603;28;20016;-70
2022/04/12 03:06:01;;;;;;;;;;;3.50;92.80;;;;;;5020928;28;20331;-70
2022/04/12 03:08:28;;;;;;;;;;;3.50;92.90;;;;;;5037248;28;19928;-70
2022/04/12 03:10:55;;;;;;;;;;;3.50;92.80;;;;;;5035216;28;19932;-70
2022/04/12 03:13:22;;;;;;;;;;;3.50;93.20;;;;;;5036070;28;19928;-70
2022/04/12 03:15:49;;;;;;;;;;;3.60;92.50;;;;;;5031820;28;19932;-70
2022/04/12 03:18:17;;;;;;;;;;;3.50;92.50;;;;;;5036310;28;19929;-70
2022/04/12 03:20:44;;;;;;;;;;;3.60;92.60;;;;;;5035041;28;19943;-70
2022/04/12 03:23:11;;;;;;;;;;;3.60;92.50;;;;;;5037479;28;19980;-70
2022/04/12 03:25:39;;;;;;;;;;;3.60;92.80;;;;;;5032128;28;19933;-69
2022/04/12 03:28:06;;;;;;;;;;;3.60;93.40;;;;;;5036442;28;19932;-70
2022/04/12 03:30:33;;;;;;;;;;;3.50;93.50;;;;;;5035345;28;20392;-70
2022/04/12 03:33:00;;;;;;;;;;;3.50;93.50;;;;;;5034799;28;19936;-70
2022/04/12 03:35:27;;;;;;;;;;;3.50;93.80;;;;;;5036099;28;19932;-70
2022/04/12 03:37:59;;;;;;;;;;;3.50;94.00;;;;;;5036960;28;19933;-69
2022/04/12 03:40:33;;;;;;;;;;;3.40;94.30;;;;;;5034121;28;19929;-69
2022/04/12 03:43:01;;;;;;;;;;;3.40;94.70;;;;;;5034968;28;19933;-69
2022/04/12 03:45:28;;;;;;;;;;;3.40;93.90;;;;;;5032907;28;19937;-69
2022/04/12 03:47:55;;;;;;;;;;;3.40;94.10;;;;;;5034298;28;19929;-70
2022/04/12 03:50:22;;;;;;;;;;;3.30;94.20;;;;;;5017549;28;20678;-70
2022/04/12 03:52:50;;;;;;;;;;;3.30;94.30;;;;;;5035324;28;20379;-70
2022/04/12 03:55:30;;;;;;;;;;;3.30;94.30;;;;;;5036848;28;20383;-70
2022/04/12 03:57:58;;;;;;;;;;;3.30;94.00;;;;;;5054767;28;19929;-70
2022/04/12 04:00:26;;;;;;;;;;;3.20;94.10;;;;;;5038101;28;19933;-70
2022/04/12 04:02:53;;;;;;;;;;;3.20;93.50;;;;;;5037449;28;19928;-70
2022/04/12 04:05:20;;;;;;;;;;;3.20;93.20;;;;;;5035482;28;20160;-70
2022/04/12 04:07:47;;;;;;;;;;;3.10;93.00;;;;;;5036733;28;20470;-70
2022/04/12 04:10:15;;;;;;;;;;;3.20;92.90;;;;;;5024731;28;20023;-70
2022/04/12 04:12:42;;;;;;;;;;;3.10;92.80;;;;;;5036282;28;19932;-70
2022/04/12 04:15:14;;;;;;;;;;;3.10;92.50;;;;;;5037383;28;19929;-70
2022/04/12 04:17:42;;;;;;;;;;;3.10;92.30;;;;;;5037894;28;19928;-70
2022/04/12 04:20:10;;;;;;;;;;;3.10;92.50;;;;;;5037063;28;21844;-70
2022/04/12 04:22:37;;;;;;;;;;;3.10;92.40;;;;;;5036130;28;20208;-70
2022/04/12 04:25:04;;;;;;;;;;;3.10;92.40;;;;;;5037674;28;19940;-70
2022/04/12 04:27:34;;;;;;;;;;;3.10;92.40;;;;;;5038150;28;19933;-69
2022/04/12 04:30:03;;;;;;;;;;;3.10;92.60;;;;;;5036672;28;19933;-69
2022/04/12 04:32:30;;;;;;;;;;;3.10;92.50;;;;;;5035449;28;19928;-69
2022/04/12 04:34:57;;;;;;;;;;;3.10;92.70;;;;;;5037037;28;19928;-70
2022/04/12 04:37:24;;;;;;;;;;;3.10;92.30;;;;;;5054917;28;19975;-70
2022/04/12 04:39:51;;;;;;;;;;;3.20;92.20;;;;;;5052080;28;20471;-70
2022/04/12 04:42:20;;;;;;;;;;;3.10;92.20;;;;;;5037412;28;19936;-69
2022/04/12 04:44:47;;;;;;;;;;;3.10;92.40;;;;;;5041471;28;19940;-70
2022/04/12 04:47:14;;;;;;;;;;;3.20;92.30;;;;;;5043339;28;19928;-70
2022/04/12 04:49:42;;;;;;;;;;;3.10;92.30;;;;;;5030431;28;19992;-70
2022/04/12 04:52:08;;;;;;;;;;;3.10;92.20;;;;;;5037718;28;19954;-70
2022/04/12 04:54:35;;;;;;;;;;;3.10;92.40;;;;;;5022440;28;19998;-70
2022/04/12 04:57:02;;;;;;;;;;;3.10;92.40;;;;;;5037171;28;20388;-70
2022/04/12 04:59:29;;;;;;;;;;;3.20;92.20;;;;;;5039814;28;19925;-70
2022/04/12 05:01:56;;;;;;;;;;;3.20;92.30;;;;;;5003015;28;19933;-70
2022/04/12 05:04:23;;;;;;;;;;;3.20;92.30;;;;;;4977365;28;20067;-70
2022/04/12 05:06:50;;;;;;;;;;;3.30;92.00;;;;;;4990401;28;20369;-70
2022/04/12 05:09:17;;;;;;;;;;;3.40;91.90;;;;;;4991574;28;20689;-70
2022/04/12 05:11:44;;;;;;;;;;;3.40;91.80;;;;;;4986628;28;19940;-70
2022/04/12 05:14:11;;;;;;;;;;;3.40;91.60;;;;;;4990805;28;22592;-70
2022/04/12 05:16:38;;;;;;;;;;;3.50;91.30;;;;;;4992574;28;20137;-70
2022/04/12 05:19:05;;;;;;;;;;;3.60;91.10;;;;;;5010090;28;19971;-70
2022/04/12 05:21:31;;;;;;;;;;;3.60;91.00;;;;;;4993259;28;20035;-70
2022/04/12 05:23:58;;;;;;;;;;;3.60;90.80;;;;;;4991517;28;20039;-70
2022/04/12 05:26:25;;;;;;;;;;;3.70;90.60;;;;;;4998583;28;20053;-70
2022/04/12 05:28:52;;;;;;;;;;;3.70;90.50;;;;;;4995019;28;19982;-70
2022/04/12 05:31:19;;;;;;;;;;;3.80;90.30;;;;;;4993205;28;19940;-70
2022/04/12 05:33:46;;;;;;;;;;;3.80;89.80;;;;;;4993487;28;19933;-70
2022/04/12 05:36:13;;;;;;;;;;;3.90;89.40;;;;;;4993267;28;20576;-71
2022/04/12 05:38:40;;;;;;;;;;;4.00;89.20;;;;;;4990961;28;19933;-70
2022/04/12 05:41:07;;;;;;;;;;;4.00;88.70;;;;;;5005676;28;20528;-70
2022/04/12 05:43:35;;;;;;;;;;;4.10;88.80;;;;;;4993800;28;20067;-70
2022/04/12 05:46:01;;;;;;;;;;;4.20;89.50;;;;;;4992846;28;19984;-70
2022/04/12 05:48:28;;;;;;;;;;;4.30;88.10;;;;;;4993194;28;20607;-70
2022/04/12 05:50:55;;;;;;;;;;;4.40;88.00;;;;;;4975372;28;20526;-70
2022/04/12 05:53:22;;;;;;;;;;;4.50;87.80;;;;;;5008482;28;19971;-70
2022/04/12 05:55:49;;;;;;;;;;;4.60;86.90;;;;;;4991029;28;20595;-70
2022/04/12 05:58:16;;;;;;;;;;;4.80;85.90;;;;;;4991323;28;20324;-70
2022/04/12 06:00:43;;;;;;;;;;;4.90;86.30;;;;;;5006074;28;19933;-70
2022/04/12 06:03:10;;;;;;;;;;;5.00;85.70;;;;;;4991580;28;20997;-70
2022/04/12 06:05:37;;;;;;;;;;;5.20;86.50;;;;;;4990738;28;19933;-70
2022/04/12 06:08:04;;;;;;;;;;;5.30;85.40;;;;;;4991548;28;21500;-70
2022/04/12 06:10:31;;;;;;;;;;;5.40;85.40;;;;;;4991956;28;19932;-70
2022/04/12 06:12:59;;;;;;;;;;;5.60;86.80;;;;;;4990208;28;19962;-70
2022/04/12 06:15:27;;;;;;;;;;;5.80;85.30;;;;;;5005278;28;20765;-70
2022/04/12 06:17:54;;;;;;;;;;;6.00;85.40;;;;;;4990941;28;20773;-70
2022/04/12 06:20:21;;;;;;;;;;;6.10;84.50;;;;;;4990272;28;19970;-70
2022/04/12 06:22:48;;;;;;;;;;;6.00;84.70;;;;;;4997739;28;20066;-70
2022/04/12 06:25:16;;;;;;;;;;;6.00;84.80;;;;;;4988585;28;20157;-70
2022/04/12 06:27:46;;;;;;;;;;;6.20;84.40;;;;;;4989722;28;19940;-70
2022/04/12 06:30:14;;;;;;;;;;;6.50;85.70;;;;;;4990266;28;20538;-70
2022/04/12 06:32:42;;;;;;;;;;;6.70;85.20;;;;;;4991792;28;22471;-70
2022/04/12 06:35:10;;;;;;;;;;;6.90;83.00;;;;;;4989199;28;22429;-70
2022/04/12 06:37:37;;;;;;;;;;;6.90;83.10;;;;;;4975442;28;23456;-70
2022/04/12 06:40:07;;;;;;;;;;;7.00;83.30;;;;;;4990241;28;19997;-70
2022/04/12 06:42:34;;;;;;;;;;;7.20;82.80;;;;;;4989798;28;19964;-70
2022/04/12 06:45:05;;;;;;;;;;;7.40;82.30;;;;;;4989861;28;20572;-69
2022/04/12 06:47:33;;;;;;;;;;;7.60;82.70;;;;;;4988329;28;20945;-70
2022/04/12 06:50:01;;;;;;;;;;;7.80;83.20;;;;;;4979772;28;19940;-70
2022/04/12 06:52:28;;;;;;;;;;;7.90;82.80;;;;;;4985641;28;19940;-70
2022/04/12 06:54:55;;;;;;;;;;;8.00;81.80;;;;;;5005157;28;22246;-70
2022/04/12 06:57:22;;;;;;;;;;;8.10;82.50;;;;;;4987939;28;22328;-70
2022/04/12 06:59:51;;;;;;;;;;;8.30;82.00;;;;;;4992239;28;20124;-70
2022/04/12 07:02:18;;;;;;;;;;;8.30;79.20;;;;;;4989232;28;20021;-70
2022/04/12 07:04:45;;;;;;;;;;;8.50;78.50;;;;;;4991207;28;19936;-70
2022/04/12 07:07:13;;;;;;;;;;;8.60;77.80;;;;;;4985838;28;22298;-70
2022/04/12 07:09:40;;;;;;;;;;;8.80;77.80;;;;;;4988920;28;19948;-70
2022/04/12 07:12:07;;;;;;;;;;;8.90;76.30;;;;;;4990356;28;19933;-70
2022/04/12 07:14:34;;;;;;;;;;;9.00;75.00;;;;;;4990456;28;20018;-70
2022/04/12 07:17:03;;;;;;;;;;;9.20;71.40;;;;;;4991360;28;19979;-70
2022/04/12 07:19:30;;;;;;;;;;;9.30;72.10;;;;;;4990597;28;21584;-70
2022/04/12 07:21:57;;;;;;;;;;;9.30;70.70;;;;;;4988598;28;19933;-70
2022/04/12 07:24:24;;;;;;;;;;;9.40;71.80;;;;;;4989815;28;19933;-69
2022/04/12 07:26:52;;;;;;;;;;;9.60;69.80;;;;;;5007772;28;19933;-69
2022/04/12 07:29:19;;;;;;;;;;;9.70;69.50;;;;;;4992151;28;19933;-69
2022/04/12 07:31:46;;;;;;;;;;;9.80;70.80;;;;;;4991533;28;19933;-69
2022/04/12 07:34:14;;;;;;;;;;;9.90;70.10;;;;;;4993201;28;19933;-70
2022/04/12 07:36:47;;;;;;;;;;;10.00;72.20;;;;;;5007792;28;19976;-71
2022/04/12 07:39:15;;;;;;;;;;;10.10;71.40;;;;;;4993692;28;20708;-70
2022/04/12 07:41:43;;;;;;;;;;;10.30;71.80;;;;;;4997513;28;19933;-70
2022/04/12 07:44:10;;;;;;;;;;;10.30;68.10;;;;;;4995393;28;19937;-71
2022/04/12 07:46:37;;;;;;;;;;;10.50;67.20;;;;;;4993628;28;22339;-70
2022/04/12 07:49:04;;;;;;;;;;;10.60;69.10;;;;;;4992823;28;20788;-70
2022/04/12 07:51:31;;;;;;;;;;;10.60;66.40;;;;;;4993656;28;20591;-70
2022/04/12 07:54:01;;;;;;;;;;;10.70;67.30;;;;;;4990470;28;19932;-70
2022/04/12 07:56:28;;;;;;;;;;;10.80;63.80;;;;;;4992041;28;20577;-70
2022/04/12 07:58:55;;;;;;;;;;;11.00;64.50;;;;;;5008616;28;20075;-70
2022/04/12 08:01:22;;;;;;;;;;;11.00;65.10;;;;;;4991598;28;19990;-71
2022/04/12 08:03:49;;;;;;;;;;;11.10;66.70;;;;;;4995963;28;19933;-70
2022/04/12 08:06:17;;;;;;;;;;;11.10;61.70;;;;;;4991865;28;19933;-69
2022/04/12 08:08:44;;;;;;;;;;;11.20;62.00;;;;;;4989559;28;20392;-70
2022/04/12 08:11:12;;;;;;;;;;;11.30;60.00;;;;;;4991529;28;19932;-70
2022/04/12 08:13:40;;;;;;;;;;;11.50;58.20;;;;;;4994191;28;19939;-68
2022/04/12 08:16:08;;;;;;;;;;;11.70;60.20;;;;;;4994104;28;23379;-69
2022/04/12 08:18:36;;;;;;;;;;;11.70;60.60;;;;;;4992504;28;19933;-69
2022/04/12 08:21:03;;;;;;;;;;;11.70;58.70;;;;;;4992636;28;19933;-69
2022/04/12 08:23:30;;;;;;;;;;;11.80;57.50;;;;;;4993161;28;19940;-71
2022/04/12 08:25:57;;;;;;;;;;;11.80;56.20;;;;;;4994328;28;19932;-71
2022/04/12 08:28:24;;;;;;;;;;;11.90;59.00;;;;;;4992789;28;20002;-68
2022/04/12 08:30:52;;;;;;;;;;;12.00;55.00;;;;;;4992654;28;19933;-69
2022/04/12 08:33:19;;;;;;;;;;;12.00;55.40;;;;;;4993427;28;19940;-70
2022/04/12 08:35:46;;;;;;;;;;;12.00;56.80;;;;;;4993093;28;19933;-68
2022/04/12 08:38:13;;;;;;;;;;;12.10;53.30;;;;;;4994279;28;19933;-68
2022/04/12 08:40:40;;;;;;;;;;;12.20;53.80;;;;;;4994125;28;19933;-69
2022/04/12 08:43:08;;;;;;;;;;;12.20;49.90;;;;;;4990391;28;22486;-69
2022/04/12 08:45:36;;;;;;;;;;;12.30;49.80;;;;;;4991752;28;20023;-69
2022/04/12 08:48:05;;;;;;;;;;;12.20;50.70;;;;;;4992174;28;22354;-69
2022/04/12 08:50:34;;;;;;;;;;;12.20;50.80;;;;;;4992620;28;20035;-68
2022/04/12 08:53:01;;;;;;;;;;;12.30;53.20;;;;;;4992647;28;19933;-70
2022/04/12 08:55:29;;;;;;;;;;;12.30;50.10;;;;;;5006954;28;19940;-70
2022/04/12 08:57:57;;;;;;;;;;;12.60;49.60;;;;;;4991581;28;19940;-69
2022/04/12 09:00:24;;;;;;;;;;;12.40;48.00;;;;;;4996676;28;19945;-69
2022/04/12 09:02:57;;;;;;;;;;;12.60;49.10;;;;;;4989632;28;19933;-69
2022/04/12 09:05:26;;;;;;;;;;;12.80;46.80;;;;;;5006970;28;20542;-69
2022/04/12 09:07:53;;;;;;;;;;;12.70;47.90;;;;;;4989042;28;19933;-68
2022/04/12 09:10:31;;;;;;;;;;;12.90;47.80;;;;;;4993436;28;22333;-68
2022/04/12 09:13:11;;;;;;;;;;;13.10;48.00;;;;;;4989028;28;20446;-68
2022/04/12 09:15:43;;;;;;;;;;;13.10;48.20;;;;;;4992350;28;19932;-68
2022/04/12 09:18:30;;;;;;;;;;;13.20;48.20;;;;;;4987619;28;19984;-69
2022/04/12 09:21:13;;;;;;;;;;;13.30;47.30;;;;;;4991644;28;19974;-69
2022/04/12 09:23:45;;;;;;;;;;;13.30;45.70;;;;;;5004896;28;20158;-68
2022/04/12 09:26:24;;;;;;;;;;;13.50;49.10;;;;;;4988193;28;20638;-68
2022/04/12 09:28:53;;;;;;;;;;;13.60;48.60;;;;;;5007629;28;20684;-69
2022/04/12 09:31:21;;;;;;;;;;;13.70;49.00;;;;;;4990611;28;20030;-68
2022/04/12 09:33:50;;;;;;;;;;;13.70;47.80;;;;;;4992479;28;19940;-69
2022/04/12 09:36:17;;;;;;;;;;;13.90;51.60;;;;;;4989888;28;19986;-68
2022/04/12 09:38:46;;;;;;;;;;;13.90;46.80;;;;;;4988954;28;20011;-67
2022/04/12 09:41:14;;;;;;;;;;;13.80;46.60;;;;;;4985768;28;19933;-68
2022/04/12 09:43:52;;;;;;;;;;;13.80;45.30;;;;;;4987699;28;20698;-68
2022/04/12 09:46:19;;;;;;;;;;;13.70;46.30;;;;;;4985619;28;20025;-68
2022/04/12 09:48:47;;;;;;;;;;;13.90;47.60;;;;;;4984223;28;20030;-68
2022/04/12 09:51:15;;;;;;;;;;;13.80;45.60;;;;;;5002460;28;19965;-67
2022/04/12 09:53:45;;;;;;;;;;;13.90;48.60;;;;;;4985128;28;21278;-68
2022/04/12 09:56:15;;;;;;;;;;;14.10;46.50;;;;;;4991718;28;20026;-69
2022/04/12 09:58:43;;;;;;;;;;;14.10;45.20;;;;;;4987712;28;20565;-68
2022/04/12 10:01:11;;;;;;;;;;;14.10;45.40;;;;;;4988651;28;19955;-68
2022/04/12 10:03:39;;;;;;;;;;;13.80;45.90;;;;;;4988777;28;22296;-68
2022/04/12 10:06:07;;;;;;;;;;;14.00;46.60;;;;;;4990597;28;20217;-68
2022/04/12 10:08:34;;;;;;;;;;;14.00;45.20;;;;;;4990012;28;20067;-68
2022/04/12 10:11:01;;;;;;;;;;;14.00;47.60;;;;;;4989297;28;19939;-67
2022/04/12 10:13:28;;;;;;;;;;;14.10;45.60;;;;;;4990622;28;20077;-68
2022/04/12 10:15:56;;;;;;;;;;;14.00;44.30;;;;;;4990362;28;19967;-68
2022/04/12 10:18:24;;;;;;;;;;;13.80;44.80;;;;;;4994402;28;19972;-68
2022/04/12 10:20:51;;;;;;;;;;;14.10;45.90;;;;;;5005609;28;19980;-67
2022/04/12 10:23:23;;;;;;;;;;;14.10;44.60;;;;;;4986746;28;20688;-68
2022/04/12 10:25:51;;;;;;;;;;;14.20;45.60;;;;;;4988343;28;19955;-68
2022/04/12 10:28:19;;;;;;;;;;;14.30;46.50;;;;;;4991519;28;20585;-68
2022/04/12 10:30:46;;;;;;;;;;;14.70;47.90;;;;;;4990876;28;19937;-69
2022/04/12 10:33:24;;;;;;;;;;;14.70;46.70;;;;;;4988068;28;20114;-68
2022/04/12 10:35:54;;;;;;;;;;;14.80;47.40;;;;;;4994508;28;20027;-68
2022/04/12 10:38:22;;;;;;;;;;;14.80;45.10;;;;;;4987777;28;19979;-68
2022/04/12 10:40:51;;;;;;;;;;;14.70;45.80;;;;;;4989438;28;19940;-68
2022/04/12 10:43:23;;;;;;;;;;;15.00;48.90;;;;;;4990233;28;19940;-67
2022/04/12 10:45:52;;;;;;;;;;;15.20;45.10;;;;;;4990490;28;19932;-68
2022/04/12 10:48:20;;;;;;;;;;;15.00;44.50;;;;;;4995088;28;19960;-68
2022/04/12 10:50:48;;;;;;;;;;;15.10;44.70;;;;;;4989951;28;19933;-69
2022/04/12 10:53:35;;;;;;;;;;;15.00;45.10;;;;;;4988098;28;19933;-68
2022/04/12 10:56:08;;;;;;;;;;;14.80;45.40;;;;;;4988406;28;19941;-68
2022/04/12 10:58:35;;;;;;;;;;;14.90;45.00;;;;;;4988360;28;20383;-68
2022/04/12 11:01:04;;;;;;;;;;;15.10;47.40;;;;;;4978350;28;20027;-67
2022/04/12 11:03:40;;;;;;;;;;;15.10;44.20;;;;;;4986834;28;19934;-70
2022/04/12 11:06:34;;;;;;;;;;;15.30;47.30;;;;;;5003689;28;19971;-69
2022/04/12 11:09:09;;;;;;;;;;;15.50;48.60;;;;;;4981891;28;19933;-68
2022/04/12 11:11:48;;;;;;;;;;;15.60;45.90;;;;;;4984182;28;19984;-69
2022/04/12 11:14:32;;;;;;;;;;;15.30;44.10;;;;;;4990043;28;19987;-68
2022/04/12 11:17:01;;;;;;;;;;;15.60;46.80;;;;;;4991628;28;19932;-68
2022/04/12 11:19:39;;;;;;;;;;;15.60;46.00;;;;;;4992331;28;20946;-68
2022/04/12 11:22:09;;;;;;;;;;;15.70;45.80;;;;;;4989904;28;19933;-68
2022/04/12 11:24:37;;;;;;;;;;;15.80;45.50;;;;;;4990510;28;22638;-68
2022/04/12 11:27:06;;;;;;;;;;;16.00;46.80;;;;;;4990672;28;19933;-68
2022/04/12 11:29:33;;;;;;;;;;;15.90;44.40;;;;;;4990638;28;19933;-69
2022/04/12 11:32:01;;;;;;;;;;;15.60;43.00;;;;;;4980129;28;19976;-68
2022/04/12 11:34:29;;;;;;;;;;;15.30;44.10;;;;;;4974157;28;20595;-68
2022/04/12 11:37:01;;;;;;;;;;;15.40;45.50;;;;;;4989122;28;19933;-67
2022/04/12 11:39:30;;;;;;;;;;;15.50;45.50;;;;;;4990988;28;19933;-67
2022/04/12 11:41:58;;;;;;;;;;;15.60;43.60;;;;;;4988866;28;22374;-68
2022/04/12 11:44:27;;;;;;;;;;;15.30;43.40;;;;;;4991712;28;20082;-68
2022/04/12 11:46:58;;;;;;;;;;;15.60;45.10;;;;;;4990849;28;19955;-68
2022/04/12 11:49:27;;;;;;;;;;;15.80;45.90;;;;;;4990739;28;19937;-67
2022/04/12 11:51:55;;;;;;;;;;;16.00;43.90;;;;;;4989166;28;19933;-70
2022/04/12 11:54:26;;;;;;;;;;;16.20;47.50;;;;;;4987142;28;19933;-68
2022/04/12 11:57:05;;;;;;;;;;;16.20;46.70;;;;;;4990146;28;19933;-68
2022/04/12 11:59:34;;;;;;;;;;;16.30;47.80;;;;;;4987867;28;20010;-68
2022/04/12 12:02:02;;;;;;;;;;;16.40;45.40;;;;;;4989142;28;19940;-67
2022/04/12 12:04:31;;;;;;;;;;;16.20;43.60;;;;;;4994756;28;22276;-68
2022/04/12 12:07:06;;;;;;;;;;;16.10;45.00;;;;;;4989805;28;19940;-70
2022/04/12 12:09:49;;;;;;;;;;;16.40;49.00;;;;;;4989080;28;19933;-68
2022/04/12 12:12:17;;;;;;;;;;;16.50;43.60;;;;;;4992360;28;19933;-67
2022/04/12 12:14:44;;;;;;;;;;;16.60;44.10;;;;;;4994557;28;19932;-68
2022/04/12 12:17:18;;;;;;;;;;;16.40;44.80;;;;;;5008459;28;19940;-67
2022/04/12 12:19:46;;;;;;;;;;;16.50;44.90;;;;;;5000413;28;19937;-69
2022/04/12 12:22:14;;;;;;;;;;;16.50;44.20;;;;;;4991547;28;20952;-68
2022/04/12 12:24:57;;;;;;;;;;;16.50;43.40;;;;;;4994414;28;19932;-68
2022/04/12 12:27:31;;;;;;;;;;;16.10;45.30;;;;;;4995207;28;19933;-68
2022/04/12 12:30:21;;;;;;;;;;;16.70;45.50;;;;;;4994432;28;19936;-67
2022/04/12 12:32:52;;;;;;;;;;;16.90;45.90;;;;;;4985711;28;20344;-68
2022/04/12 12:35:20;;;;;;;;;;;17.00;44.30;;;;;;4993701;28;19939;-67
2022/04/12 12:37:47;;;;;;;;;;;17.00;43.70;;;;;;4995043;28;19933;-67
2022/04/12 12:40:24;;;;;;;;;;;17.10;43.80;;;;;;4993242;28;19933;-69
2022/04/12 12:42:52;;;;;;;;;;;17.10;44.50;;;;;;4993865;28;19932;-70
2022/04/12 12:45:23;;;;;;;;;;;17.20;47.70;;;;;;4993461;28;20022;-68
2022/04/12 12:47:55;;;;;;;;;;;17.00;43.60;;;;;;4991975;28;20064;-68
2022/04/12 12:50:23;;;;;;;;;;;17.10;45.30;;;;;;4992683;28;22261;-68
2022/04/12 12:53:01;;;;;;;;;;;17.30;44.20;;;;;;4999194;28;20136;-68
2022/04/12 12:55:29;;;;;;;;;;;17.20;45.60;;;;;;4976190;28;19933;-67
2022/04/12 12:58:02;;;;;;;;;;;17.20;43.90;;;;;;4992100;28;19933;-68
2022/04/12 13:00:30;;;;;;;;;;;17.20;44.00;;;;;;4998418;28;20128;-69
2022/04/12 13:02:58;;;;;;;;;;;17.40;44.60;;;;;;4993770;28;19999;-68
2022/04/12 13:05:25;;;;;;;;;;;17.20;43.50;;;;;;5010086;28;19986;-67
2022/04/12 13:07:56;;;;;;;;;;;17.20;43.00;;;;;;4992493;28;20087;-67
2022/04/12 13:10:23;;;;;;;;;;;17.20;45.20;;;;;;4993924;28;20719;-69
2022/04/12 13:12:50;;;;;;;;;;;17.50;43.80;;;;;;4993786;28;19933;-71
2022/04/12 13:15:17;;;;;;;;;;;17.60;42.70;;;;;;4993453;28;19933;-68
2022/04/12 13:17:44;;;;;;;;;;;17.10;41.60;;;;;;4992515;28;19940;-68
2022/04/12 13:20:13;;;;;;;;;;;17.20;45.10;;;;;;5009203;28;22289;-68
2022/04/12 13:22:41;;;;;;;;;;;17.30;42.50;;;;;;4990975;28;19939;-68
2022/04/12 13:25:08;;;;;;;;;;;17.10;41.80;;;;;;4993040;28;19940;-68
2022/04/12 13:27:35;;;;;;;;;;;16.60;42.10;;;;;;4992789;28;20115;-68
2022/04/12 13:30:05;;;;;;;;;;;16.80;43.70;;;;;;4992146;28;20742;-68
2022/04/12 13:32:38;;;;;;;;;;;17.20;43.00;;;;;;4977315;28;20126;-68
2022/04/12 13:35:07;;;;;;;;;;;17.30;43.00;;;;;;4991254;28;19979;-68
2022/04/12 13:37:34;;;;;;;;;;;17.20;41.60;;;;;;4997080;28;19933;-68
2022/04/12 13:40:02;;;;;;;;;;;17.30;43.70;;;;;;4991644;28;19976;-68
2022/04/12 13:42:29;;;;;;;;;;;17.40;43.70;;;;;;4975141;28;22341;-69
2022/04/12 13:44:56;;;;;;;;;;;17.40;43.10;;;;;;4993020;28;19940;-68
2022/04/12 13:47:23;;;;;;;;;;;17.40;44.50;;;;;;4991133;28;19933;-68
2022/04/12 13:49:50;;;;;;;;;;;17.40;42.70;;;;;;4992187;28;19940;-68
2022/04/12 13:52:17;;;;;;;;;;;17.30;41.50;;;;;;5007580;28;20493;-68
2022/04/12 13:54:44;;;;;;;;;;;17.50;42.20;;;;;;4991117;28;20664;-68
2022/04/12 13:57:11;;;;;;;;;;;17.60;42.10;;;;;;4991814;28;19933;-68
2022/04/12 13:59:38;;;;;;;;;;;17.70;42.20;;;;;;4991526;28;20615;-68
2022/04/12 14:02:05;;;;;;;;;;;17.70;43.80;;;;;;4980761;28;20035;-69
2022/04/12 14:04:33;;;;;;;;;;;17.70;43.90;;;;;;4991400;28;20025;-68
2022/04/12 14:06:59;;;;;;;;;;;17.60;43.40;;;;;;4991590;28;20062;-68
2022/04/12 14:09:29;;;;;;;;;;;17.60;42.40;;;;;;4991920;28;19932;-68
2022/04/12 14:11:56;;;;;;;;;;;17.60;43.50;;;;;;4991358;28;20018;-68
2022/04/12 14:14:23;;;;;;;;;;;17.50;42.10;;;;;;5007771;28;19932;-71
2022/04/12 14:16:50;;;;;;;;;;;17.50;45.30;;;;;;4995470;28;19940;-71
2022/04/12 14:19:17;;;;;;;;;;;17.30;42.60;;;;;;4993002;28;19933;-69
2022/04/12 14:21:44;;;;;;;;;;;17.20;43.40;;;;;;4991822;28;19933;-69
2022/04/12 14:24:13;;;;;;;;;;;17.20;41.80;;;;;;4989562;28;22462;-68
2022/04/12 14:26:40;;;;;;;;;;;17.00;42.70;;;;;;5006086;28;19933;-69
2022/04/12 14:29:13;;;;;;;;;;;17.10;45.00;;;;;;4989795;28;19933;-69
2022/04/12 14:31:42;;;;;;;;;;;17.10;44.10;;;;;;4990774;28;19933;-69